sensor_id;sensor_type;location;lat;lon;timestamp;P1;durP1;ratioP1;P2;durP2;ratioP2
79023;SDS011;70306;44.764;37.688;2023-08-17T00:00:04;20.83;;;6.68;;
79023;SDS011;70306;44.764;37.688;2023-08-17T00:01:10;13.57;;;6.70;;
79023;SDS011;70306;44.764;37.688;2023-08-17T00:02:12;62.83;;;9.75;;
79023;SDS011;70306;44.764;37.688;2023-08-17T00:03:14;43.88;;;8.38;;
79023;SDS011;70306;44.764;37.688;2023-08-17T00:04:17;44.72;;;8.05;;
79023;SDS011;70306;44.764;37.688;2023-08-17T00:05:18;17.40;;;6.63;;
79023;SDS011;70306;44.764;37.688;2023-08-17T00:06:20;11.02;;;6.60;;
79023;SDS011;70306;44.764;37.688;2023-08-17T00:07:22;19.75;;;6.93;;
79023;SDS011;70306;44.764;37.688;2023-08-17T00:08:24;26.33;;;6.57;;
79023;SDS011;70306;44.764;37.688;2023-08-17T00:09:25;19.95;;;6.80;;
79023;SDS011;70306;44.764;37.688;2023-08-17T00:10:27;22.38;;;7.43;;
79023;SDS011;70306;44.764;37.688;2023-08-17T00:11:29;21.40;;;6.68;;
79023;SDS011;70306;44.764;37.688;2023-08-17T00:12:31;26.00;;;8.43;;
79023;SDS011;70306;44.764;37.688;2023-08-17T00:13:32;14.40;;;6.65;;
79023;SDS011;70306;44.764;37.688;2023-08-17T00:14:34;20.95;;;6.68;;
79023;SDS011;70306;44.764;37.688;2023-08-17T00:15:36;22.10;;;6.57;;
79023;SDS011;70306;44.764;37.688;2023-08-17T00:16:37;15.73;;;6.43;;
79023;SDS011;70306;44.764;37.688;2023-08-17T00:17:39;49.70;;;10.07;;
79023;SDS011;70306;44.764;37.688;2023-08-17T00:18:41;28.33;;;7.68;;
79023;SDS011;70306;44.764;37.688;2023-08-17T00:19:42;20.10;;;7.15;;
79023;SDS011;70306;44.764;37.688;2023-08-17T00:20:44;10.30;;;5.90;;
79023;SDS011;70306;44.764;37.688;2023-08-17T00:21:46;18.17;;;6.40;;
79023;SDS011;70306;44.764;37.688;2023-08-17T00:22:48;15.32;;;6.30;;
79023;SDS011;70306;44.764;37.688;2023-08-17T00:23:50;15.55;;;6.30;;
79023;SDS011;70306;44.764;37.688;2023-08-17T00:24:51;19.85;;;6.43;;
79023;SDS011;70306;44.764;37.688;2023-08-17T00:25:53;13.90;;;6.53;;
79023;SDS011;70306;44.764;37.688;2023-08-17T00:26:55;16.13;;;6.53;;
79023;SDS011;70306;44.764;37.688;2023-08-17T00:27:58;41.97;;;9.68;;
79023;SDS011;70306;44.764;37.688;2023-08-17T00:28:59;18.00;;;6.47;;
79023;SDS011;70306;44.764;37.688;2023-08-17T00:30:01;36.90;;;8.27;;
79023;SDS011;70306;44.764;37.688;2023-08-17T00:31:03;17.90;;;6.95;;
79023;SDS011;70306;44.764;37.688;2023-08-17T00:32:05;18.25;;;6.80;;
79023;SDS011;70306;44.764;37.688;2023-08-17T00:33:06;20.00;;;6.95;;
79023;SDS011;70306;44.764;37.688;2023-08-17T00:34:08;32.20;;;7.00;;
79023;SDS011;70306;44.764;37.688;2023-08-17T00:35:10;31.13;;;8.63;;
79023;SDS011;70306;44.764;37.688;2023-08-17T00:36:11;12.95;;;6.13;;
79023;SDS011;70306;44.764;37.688;2023-08-17T00:37:13;18.92;;;6.25;;
79023;SDS011;70306;44.764;37.688;2023-08-17T00:38:15;14.18;;;6.07;;
79023;SDS011;70306;44.764;37.688;2023-08-17T00:39:16;8.52;;;5.20;;
79023;SDS011;70306;44.764;37.688;2023-08-17T00:40:18;17.10;;;6.80;;
79023;SDS011;70306;44.764;37.688;2023-08-17T00:41:20;27.10;;;7.60;;
79023;SDS011;70306;44.764;37.688;2023-08-17T00:42:22;10.23;;;6.03;;
79023;SDS011;70306;44.764;37.688;2023-08-17T00:43:23;13.95;;;6.60;;
79023;SDS011;70306;44.764;37.688;2023-08-17T00:44:25;12.32;;;6.18;;
79023;SDS011;70306;44.764;37.688;2023-08-17T00:45:27;11.88;;;6.22;;
79023;SDS011;70306;44.764;37.688;2023-08-17T00:46:29;10.07;;;6.95;;
79023;SDS011;70306;44.764;37.688;2023-08-17T00:47:31;11.40;;;6.63;;
79023;SDS011;70306;44.764;37.688;2023-08-17T00:48:33;10.18;;;7.13;;
79023;SDS011;70306;44.764;37.688;2023-08-17T00:49:35;13.52;;;7.30;;
79023;SDS011;70306;44.764;37.688;2023-08-17T00:50:37;12.98;;;6.50;;
79023;SDS011;70306;44.764;37.688;2023-08-17T00:51:40;13.30;;;7.85;;
79023;SDS011;70306;44.764;37.688;2023-08-17T00:52:42;20.75;;;7.47;;
79023;SDS011;70306;44.764;37.688;2023-08-17T00:53:44;22.92;;;7.07;;
79023;SDS011;70306;44.764;37.688;2023-08-17T00:54:46;12.82;;;6.65;;
79023;SDS011;70306;44.764;37.688;2023-08-17T00:55:48;13.90;;;7.70;;
79023;SDS011;70306;44.764;37.688;2023-08-17T00:56:50;32.08;;;10.55;;
79023;SDS011;70306;44.764;37.688;2023-08-17T00:57:53;17.00;;;7.20;;
79023;SDS011;70306;44.764;37.688;2023-08-17T00:58:57;10.98;;;6.90;;
79023;SDS011;70306;44.764;37.688;2023-08-17T00:59:59;11.57;;;6.45;;
79023;SDS011;70306;44.764;37.688;2023-08-17T01:01:01;13.20;;;5.90;;
79023;SDS011;70306;44.764;37.688;2023-08-17T01:02:04;20.00;;;7.18;;
79023;SDS011;70306;44.764;37.688;2023-08-17T01:03:06;10.43;;;6.68;;
79023;SDS011;70306;44.764;37.688;2023-08-17T01:04:08;12.82;;;6.63;;
79023;SDS011;70306;44.764;37.688;2023-08-17T01:05:10;19.00;;;7.38;;
79023;SDS011;70306;44.764;37.688;2023-08-17T01:06:12;10.65;;;6.95;;
79023;SDS011;70306;44.764;37.688;2023-08-17T01:07:13;14.05;;;6.32;;
79023;SDS011;70306;44.764;37.688;2023-08-17T01:08:15;15.55;;;6.53;;
79023;SDS011;70306;44.764;37.688;2023-08-17T01:09:17;28.42;;;7.47;;
79023;SDS011;70306;44.764;37.688;2023-08-17T01:10:18;12.25;;;6.95;;
79023;SDS011;70306;44.764;37.688;2023-08-17T01:12:32;23.13;;;6.72;;
79023;SDS011;70306;44.764;37.688;2023-08-17T01:13:57;15.70;;;7.18;;
79023;SDS011;70306;44.764;37.688;2023-08-17T01:15:14;15.95;;;6.68;;
79023;SDS011;70306;44.764;37.688;2023-08-17T01:17:52;17.15;;;6.80;;
79023;SDS011;70306;44.764;37.688;2023-08-17T01:18:58;11.63;;;6.70;;
79023;SDS011;70306;44.764;37.688;2023-08-17T01:20:02;23.98;;;9.88;;
79023;SDS011;70306;44.764;37.688;2023-08-17T01:21:08;12.43;;;7.07;;
79023;SDS011;70306;44.764;37.688;2023-08-17T01:22:11;31.00;;;8.07;;
79023;SDS011;70306;44.764;37.688;2023-08-17T01:23:19;15.82;;;7.07;;
79023;SDS011;70306;44.764;37.688;2023-08-17T01:24:21;17.42;;;6.93;;
79023;SDS011;70306;44.764;37.688;2023-08-17T01:25:23;44.50;;;8.38;;
79023;SDS011;70306;44.764;37.688;2023-08-17T01:26:24;51.25;;;9.10;;
79023;SDS011;70306;44.764;37.688;2023-08-17T01:27:37;27.52;;;7.10;;
79023;SDS011;70306;44.764;37.688;2023-08-17T01:28:44;17.98;;;6.95;;
79023;SDS011;70306;44.764;37.688;2023-08-17T01:29:48;9.82;;;6.45;;
79023;SDS011;70306;44.764;37.688;2023-08-17T01:32:02;25.65;;;8.35;;
79023;SDS011;70306;44.764;37.688;2023-08-17T01:33:10;36.80;;;8.20;;
79023;SDS011;70306;44.764;37.688;2023-08-17T01:34:19;41.20;;;9.20;;
79023;SDS011;70306;44.764;37.688;2023-08-17T01:35:28;32.63;;;8.48;;
79023;SDS011;70306;44.764;37.688;2023-08-17T01:36:46;19.90;;;7.68;;
79023;SDS011;70306;44.764;37.688;2023-08-17T01:37:56;16.92;;;7.20;;
79023;SDS011;70306;44.764;37.688;2023-08-17T01:39:04;15.40;;;7.05;;
79023;SDS011;70306;44.764;37.688;2023-08-17T01:40:07;23.42;;;7.10;;
79023;SDS011;70306;44.764;37.688;2023-08-17T01:41:10;23.52;;;7.07;;
79023;SDS011;70306;44.764;37.688;2023-08-17T01:42:15;16.48;;;7.22;;
79023;SDS011;70306;44.764;37.688;2023-08-17T01:43:17;19.92;;;7.45;;
79023;SDS011;70306;44.764;37.688;2023-08-17T01:44:20;24.70;;;7.20;;
79023;SDS011;70306;44.764;37.688;2023-08-17T01:45:22;11.73;;;6.35;;
79023;SDS011;70306;44.764;37.688;2023-08-17T01:46:24;10.93;;;6.40;;
79023;SDS011;70306;44.764;37.688;2023-08-17T01:47:29;11.32;;;6.53;;
79023;SDS011;70306;44.764;37.688;2023-08-17T01:48:31;13.65;;;6.72;;
79023;SDS011;70306;44.764;37.688;2023-08-17T01:49:33;20.00;;;6.60;;
79023;SDS011;70306;44.764;37.688;2023-08-17T01:50:34;20.25;;;6.80;;
79023;SDS011;70306;44.764;37.688;2023-08-17T01:51:36;18.40;;;6.82;;
79023;SDS011;70306;44.764;37.688;2023-08-17T01:52:38;12.02;;;6.47;;
79023;SDS011;70306;44.764;37.688;2023-08-17T01:53:40;11.38;;;6.35;;
79023;SDS011;70306;44.764;37.688;2023-08-17T01:54:42;15.25;;;6.97;;
79023;SDS011;70306;44.764;37.688;2023-08-17T01:55:44;20.33;;;6.30;;
79023;SDS011;70306;44.764;37.688;2023-08-17T01:56:45;24.27;;;7.15;;
79023;SDS011;70306;44.764;37.688;2023-08-17T01:57:47;15.65;;;5.88;;
79023;SDS011;70306;44.764;37.688;2023-08-17T01:58:49;20.65;;;6.53;;
79023;SDS011;70306;44.764;37.688;2023-08-17T01:59:51;22.73;;;7.68;;
79023;SDS011;70306;44.764;37.688;2023-08-17T02:00:52;112.85;;;11.10;;
79023;SDS011;70306;44.764;37.688;2023-08-17T02:01:54;40.17;;;8.50;;
79023;SDS011;70306;44.764;37.688;2023-08-17T02:02:56;91.93;;;9.85;;
79023;SDS011;70306;44.764;37.688;2023-08-17T02:03:57;132.13;;;11.63;;
79023;SDS011;70306;44.764;37.688;2023-08-17T02:05:03;173.35;;;15.15;;
79023;SDS011;70306;44.764;37.688;2023-08-17T02:06:05;267.17;;;21.13;;
79023;SDS011;70306;44.764;37.688;2023-08-17T02:07:07;175.77;;;14.25;;
79023;SDS011;70306;44.764;37.688;2023-08-17T02:08:08;146.73;;;13.98;;
79023;SDS011;70306;44.764;37.688;2023-08-17T02:09:10;52.58;;;8.48;;
79023;SDS011;70306;44.764;37.688;2023-08-17T02:10:12;74.30;;;11.40;;
79023;SDS011;70306;44.764;37.688;2023-08-17T02:11:13;124.05;;;14.13;;
79023;SDS011;70306;44.764;37.688;2023-08-17T02:12:15;149.35;;;14.38;;
79023;SDS011;70306;44.764;37.688;2023-08-17T02:13:17;60.17;;;9.65;;
79023;SDS011;70306;44.764;37.688;2023-08-17T02:14:19;37.95;;;8.25;;
79023;SDS011;70306;44.764;37.688;2023-08-17T02:15:21;107.32;;;12.05;;
79023;SDS011;70306;44.764;37.688;2023-08-17T02:16:23;157.00;;;13.82;;
79023;SDS011;70306;44.764;37.688;2023-08-17T02:17:24;158.88;;;15.70;;
79023;SDS011;70306;44.764;37.688;2023-08-17T02:18:26;142.43;;;12.88;;
79023;SDS011;70306;44.764;37.688;2023-08-17T02:19:32;41.78;;;8.15;;
79023;SDS011;70306;44.764;37.688;2023-08-17T02:20:34;11.80;;;5.78;;
79023;SDS011;70306;44.764;37.688;2023-08-17T02:21:36;39.35;;;7.82;;
79023;SDS011;70306;44.764;37.688;2023-08-17T02:22:38;68.60;;;10.85;;
79023;SDS011;70306;44.764;37.688;2023-08-17T02:23:39;66.95;;;9.35;;
79023;SDS011;70306;44.764;37.688;2023-08-17T02:24:41;36.20;;;7.85;;
79023;SDS011;70306;44.764;37.688;2023-08-17T02:25:43;52.95;;;7.65;;
79023;SDS011;70306;44.764;37.688;2023-08-17T02:26:45;24.58;;;7.32;;
79023;SDS011;70306;44.764;37.688;2023-08-17T02:27:46;130.10;;;13.25;;
79023;SDS011;70306;44.764;37.688;2023-08-17T02:28:48;58.45;;;8.55;;
79023;SDS011;70306;44.764;37.688;2023-08-17T02:29:50;52.42;;;8.57;;
79023;SDS011;70306;44.764;37.688;2023-08-17T02:30:54;16.98;;;6.00;;
79023;SDS011;70306;44.764;37.688;2023-08-17T02:31:57;17.52;;;6.22;;
79023;SDS011;70306;44.764;37.688;2023-08-17T02:33:01;38.90;;;8.20;;
79023;SDS011;70306;44.764;37.688;2023-08-17T02:34:03;58.45;;;7.38;;
79023;SDS011;70306;44.764;37.688;2023-08-17T02:35:06;94.00;;;10.90;;
79023;SDS011;70306;44.764;37.688;2023-08-17T02:36:08;59.70;;;9.13;;
79023;SDS011;70306;44.764;37.688;2023-08-17T02:37:10;99.85;;;9.80;;
79023;SDS011;70306;44.764;37.688;2023-08-17T02:38:11;152.30;;;14.20;;
79023;SDS011;70306;44.764;37.688;2023-08-17T02:39:13;52.17;;;9.27;;
79023;SDS011;70306;44.764;37.688;2023-08-17T02:40:15;11.63;;;6.38;;
79023;SDS011;70306;44.764;37.688;2023-08-17T02:41:17;13.95;;;5.85;;
79023;SDS011;70306;44.764;37.688;2023-08-17T02:42:18;24.00;;;6.43;;
79023;SDS011;70306;44.764;37.688;2023-08-17T02:43:20;25.25;;;7.68;;
79023;SDS011;70306;44.764;37.688;2023-08-17T02:44:21;18.73;;;6.75;;
79023;SDS011;70306;44.764;37.688;2023-08-17T02:45:23;28.58;;;7.30;;
79023;SDS011;70306;44.764;37.688;2023-08-17T02:46:25;31.05;;;7.13;;
79023;SDS011;70306;44.764;37.688;2023-08-17T02:47:26;43.45;;;6.63;;
79023;SDS011;70306;44.764;37.688;2023-08-17T02:48:28;12.27;;;5.53;;
79023;SDS011;70306;44.764;37.688;2023-08-17T02:49:31;14.88;;;7.25;;
79023;SDS011;70306;44.764;37.688;2023-08-17T02:50:33;14.63;;;6.22;;
79023;SDS011;70306;44.764;37.688;2023-08-17T02:51:34;21.90;;;6.28;;
79023;SDS011;70306;44.764;37.688;2023-08-17T02:52:36;16.17;;;5.97;;
79023;SDS011;70306;44.764;37.688;2023-08-17T02:53:38;95.25;;;10.98;;
79023;SDS011;70306;44.764;37.688;2023-08-17T02:54:39;70.13;;;9.63;;
79023;SDS011;70306;44.764;37.688;2023-08-17T02:55:41;156.30;;;13.75;;
79023;SDS011;70306;44.764;37.688;2023-08-17T02:56:43;17.58;;;6.55;;
79023;SDS011;70306;44.764;37.688;2023-08-17T02:57:45;91.60;;;11.10;;
79023;SDS011;70306;44.764;37.688;2023-08-17T02:58:46;61.28;;;8.90;;
79023;SDS011;70306;44.764;37.688;2023-08-17T02:59:48;18.90;;;5.93;;
79023;SDS011;70306;44.764;37.688;2023-08-17T03:00:52;22.52;;;6.43;;
79023;SDS011;70306;44.764;37.688;2023-08-17T03:01:55;80.20;;;10.13;;
79023;SDS011;70306;44.764;37.688;2023-08-17T03:02:57;33.90;;;6.70;;
79023;SDS011;70306;44.764;37.688;2023-08-17T03:03:59;23.13;;;7.18;;
79023;SDS011;70306;44.764;37.688;2023-08-17T03:05:02;32.85;;;6.15;;
79023;SDS011;70306;44.764;37.688;2023-08-17T03:06:04;21.42;;;6.85;;
79023;SDS011;70306;44.764;37.688;2023-08-17T03:07:07;10.50;;;5.78;;
79023;SDS011;70306;44.764;37.688;2023-08-17T03:08:08;15.57;;;5.95;;
79023;SDS011;70306;44.764;37.688;2023-08-17T03:09:10;25.80;;;5.85;;
79023;SDS011;70306;44.764;37.688;2023-08-17T03:10:12;25.77;;;6.75;;
79023;SDS011;70306;44.764;37.688;2023-08-17T03:11:14;32.85;;;6.75;;
79023;SDS011;70306;44.764;37.688;2023-08-17T03:12:15;32.25;;;8.35;;
79023;SDS011;70306;44.764;37.688;2023-08-17T03:13:17;20.58;;;5.97;;
79023;SDS011;70306;44.764;37.688;2023-08-17T03:14:19;42.42;;;6.75;;
79023;SDS011;70306;44.764;37.688;2023-08-17T03:15:21;31.92;;;6.43;;
79023;SDS011;70306;44.764;37.688;2023-08-17T03:16:22;14.15;;;5.90;;
79023;SDS011;70306;44.764;37.688;2023-08-17T03:17:24;18.30;;;6.43;;
79023;SDS011;70306;44.764;37.688;2023-08-17T03:18:26;20.52;;;5.82;;
79023;SDS011;70306;44.764;37.688;2023-08-17T03:19:28;12.23;;;5.57;;
79023;SDS011;70306;44.764;37.688;2023-08-17T03:20:30;14.68;;;6.32;;
79023;SDS011;70306;44.764;37.688;2023-08-17T03:21:32;13.40;;;5.35;;
79023;SDS011;70306;44.764;37.688;2023-08-17T03:22:34;14.43;;;6.70;;
79023;SDS011;70306;44.764;37.688;2023-08-17T03:23:36;16.38;;;6.95;;
79023;SDS011;70306;44.764;37.688;2023-08-17T03:24:37;21.55;;;6.40;;
79023;SDS011;70306;44.764;37.688;2023-08-17T03:25:39;24.20;;;5.97;;
79023;SDS011;70306;44.764;37.688;2023-08-17T03:26:41;29.27;;;8.05;;
79023;SDS011;70306;44.764;37.688;2023-08-17T03:27:43;30.73;;;6.50;;
79023;SDS011;70306;44.764;37.688;2023-08-17T03:28:45;24.65;;;6.25;;
79023;SDS011;70306;44.764;37.688;2023-08-17T03:29:46;51.33;;;9.23;;
79023;SDS011;70306;44.764;37.688;2023-08-17T03:30:48;43.92;;;6.63;;
79023;SDS011;70306;44.764;37.688;2023-08-17T03:31:50;27.83;;;6.20;;
79023;SDS011;70306;44.764;37.688;2023-08-17T03:32:51;12.23;;;5.97;;
79023;SDS011;70306;44.764;37.688;2023-08-17T03:33:53;19.98;;;6.80;;
79023;SDS011;70306;44.764;37.688;2023-08-17T03:34:56;14.82;;;5.35;;
79023;SDS011;70306;44.764;37.688;2023-08-17T03:35:58;18.52;;;6.30;;
79023;SDS011;70306;44.764;37.688;2023-08-17T03:37:00;18.58;;;5.90;;
79023;SDS011;70306;44.764;37.688;2023-08-17T03:38:03;21.25;;;6.68;;
79023;SDS011;70306;44.764;37.688;2023-08-17T03:39:04;32.65;;;6.72;;
79023;SDS011;70306;44.764;37.688;2023-08-17T03:40:06;40.83;;;8.45;;
79023;SDS011;70306;44.764;37.688;2023-08-17T03:41:08;27.88;;;6.53;;
79023;SDS011;70306;44.764;37.688;2023-08-17T03:42:11;15.93;;;5.35;;
79023;SDS011;70306;44.764;37.688;2023-08-17T03:43:13;27.88;;;6.93;;
79023;SDS011;70306;44.764;37.688;2023-08-17T03:44:15;22.20;;;5.75;;
79023;SDS011;70306;44.764;37.688;2023-08-17T03:45:17;16.27;;;6.60;;
79023;SDS011;70306;44.764;37.688;2023-08-17T03:46:19;14.57;;;5.35;;
79023;SDS011;70306;44.764;37.688;2023-08-17T03:47:21;41.35;;;6.70;;
79023;SDS011;70306;44.764;37.688;2023-08-17T03:48:23;14.70;;;5.63;;
79023;SDS011;70306;44.764;37.688;2023-08-17T03:49:25;18.95;;;5.53;;
79023;SDS011;70306;44.764;37.688;2023-08-17T03:50:27;13.95;;;6.28;;
79023;SDS011;70306;44.764;37.688;2023-08-17T03:51:29;30.55;;;8.02;;
79023;SDS011;70306;44.764;37.688;2023-08-17T03:52:31;23.60;;;6.65;;
79023;SDS011;70306;44.764;37.688;2023-08-17T03:53:32;16.58;;;5.88;;
79023;SDS011;70306;44.764;37.688;2023-08-17T03:54:35;19.00;;;6.03;;
79023;SDS011;70306;44.764;37.688;2023-08-17T03:55:37;30.55;;;6.70;;
79023;SDS011;70306;44.764;37.688;2023-08-17T03:56:39;30.08;;;6.38;;
79023;SDS011;70306;44.764;37.688;2023-08-17T03:57:44;24.67;;;8.02;;
79023;SDS011;70306;44.764;37.688;2023-08-17T03:58:46;16.55;;;5.20;;
79023;SDS011;70306;44.764;37.688;2023-08-17T03:59:48;12.65;;;4.75;;
79023;SDS011;70306;44.764;37.688;2023-08-17T04:00:50;34.53;;;7.53;;
79023;SDS011;70306;44.764;37.688;2023-08-17T04:01:55;24.13;;;6.20;;
79023;SDS011;70306;44.764;37.688;2023-08-17T04:02:57;19.77;;;5.40;;
79023;SDS011;70306;44.764;37.688;2023-08-17T04:03:59;31.33;;;6.07;;
79023;SDS011;70306;44.764;37.688;2023-08-17T04:05:03;27.23;;;6.60;;
79023;SDS011;70306;44.764;37.688;2023-08-17T04:06:05;48.83;;;7.18;;
79023;SDS011;70306;44.764;37.688;2023-08-17T04:07:08;26.10;;;5.82;;
79023;SDS011;70306;44.764;37.688;2023-08-17T04:08:10;24.77;;;5.70;;
79023;SDS011;70306;44.764;37.688;2023-08-17T04:09:12;20.30;;;6.25;;
79023;SDS011;70306;44.764;37.688;2023-08-17T04:10:14;13.48;;;5.93;;
79023;SDS011;70306;44.764;37.688;2023-08-17T04:11:15;12.27;;;5.38;;
79023;SDS011;70306;44.764;37.688;2023-08-17T04:12:17;17.45;;;5.18;;
79023;SDS011;70306;44.764;37.688;2023-08-17T04:13:19;11.50;;;4.93;;
79023;SDS011;70306;44.764;37.688;2023-08-17T04:14:21;17.70;;;5.47;;
79023;SDS011;70306;44.764;37.688;2023-08-17T04:15:23;19.63;;;6.63;;
79023;SDS011;70306;44.764;37.688;2023-08-17T04:16:25;14.90;;;5.50;;
79023;SDS011;70306;44.764;37.688;2023-08-17T04:17:26;26.35;;;5.88;;
79023;SDS011;70306;44.764;37.688;2023-08-17T04:18:28;21.35;;;5.65;;
79023;SDS011;70306;44.764;37.688;2023-08-17T04:19:30;12.80;;;4.88;;
79023;SDS011;70306;44.764;37.688;2023-08-17T04:20:32;26.05;;;6.50;;
79023;SDS011;70306;44.764;37.688;2023-08-17T04:21:33;13.30;;;5.28;;
79023;SDS011;70306;44.764;37.688;2023-08-17T04:22:35;15.18;;;5.55;;
79023;SDS011;70306;44.764;37.688;2023-08-17T04:23:37;25.42;;;5.35;;
79023;SDS011;70306;44.764;37.688;2023-08-17T04:24:39;42.95;;;6.40;;
79023;SDS011;70306;44.764;37.688;2023-08-17T04:25:41;32.72;;;6.22;;
79023;SDS011;70306;44.764;37.688;2023-08-17T04:26:44;26.80;;;6.28;;
79023;SDS011;70306;44.764;37.688;2023-08-17T04:27:46;32.25;;;5.53;;
79023;SDS011;70306;44.764;37.688;2023-08-17T04:28:48;17.15;;;4.57;;
79023;SDS011;70306;44.764;37.688;2023-08-17T04:29:51;17.63;;;6.32;;
79023;SDS011;70306;44.764;37.688;2023-08-17T04:30:53;18.35;;;5.78;;
79023;SDS011;70306;44.764;37.688;2023-08-17T04:31:55;23.23;;;6.00;;
79023;SDS011;70306;44.764;37.688;2023-08-17T04:32:56;21.90;;;5.72;;
79023;SDS011;70306;44.764;37.688;2023-08-17T04:33:58;24.75;;;5.68;;
79023;SDS011;70306;44.764;37.688;2023-08-17T04:35:00;25.08;;;6.10;;
79023;SDS011;70306;44.764;37.688;2023-08-17T04:36:02;21.42;;;5.75;;
79023;SDS011;70306;44.764;37.688;2023-08-17T04:37:04;26.75;;;5.07;;
79023;SDS011;70306;44.764;37.688;2023-08-17T04:38:06;44.05;;;5.72;;
79023;SDS011;70306;44.764;37.688;2023-08-17T04:39:07;15.15;;;5.53;;
79023;SDS011;70306;44.764;37.688;2023-08-17T04:40:10;25.80;;;5.78;;
79023;SDS011;70306;44.764;37.688;2023-08-17T04:41:13;51.08;;;7.10;;
79023;SDS011;70306;44.764;37.688;2023-08-17T04:42:15;19.60;;;5.07;;
79023;SDS011;70306;44.764;37.688;2023-08-17T04:43:16;20.52;;;5.50;;
79023;SDS011;70306;44.764;37.688;2023-08-17T04:44:18;41.05;;;7.07;;
79023;SDS011;70306;44.764;37.688;2023-08-17T04:45:20;69.68;;;9.35;;
79023;SDS011;70306;44.764;37.688;2023-08-17T04:46:23;26.23;;;5.70;;
79023;SDS011;70306;44.764;37.688;2023-08-17T04:47:24;54.17;;;9.85;;
79023;SDS011;70306;44.764;37.688;2023-08-17T04:48:26;28.27;;;6.80;;
79023;SDS011;70306;44.764;37.688;2023-08-17T04:49:28;21.83;;;6.20;;
79023;SDS011;70306;44.764;37.688;2023-08-17T04:50:30;21.25;;;6.22;;
79023;SDS011;70306;44.764;37.688;2023-08-17T04:51:32;21.52;;;6.40;;
79023;SDS011;70306;44.764;37.688;2023-08-17T04:52:33;36.58;;;7.65;;
79023;SDS011;70306;44.764;37.688;2023-08-17T04:53:37;29.33;;;6.55;;
79023;SDS011;70306;44.764;37.688;2023-08-17T04:54:38;31.98;;;6.55;;
79023;SDS011;70306;44.764;37.688;2023-08-17T04:55:40;24.10;;;5.43;;
79023;SDS011;70306;44.764;37.688;2023-08-17T04:56:42;17.77;;;5.18;;
79023;SDS011;70306;44.764;37.688;2023-08-17T04:57:44;20.38;;;5.55;;
79023;SDS011;70306;44.764;37.688;2023-08-17T04:58:47;22.85;;;5.75;;
79023;SDS011;70306;44.764;37.688;2023-08-17T04:59:50;16.77;;;5.00;;
79023;SDS011;70306;44.764;37.688;2023-08-17T05:00:52;19.50;;;4.82;;
79023;SDS011;70306;44.764;37.688;2023-08-17T05:01:54;18.35;;;5.43;;
79023;SDS011;70306;44.764;37.688;2023-08-17T05:02:55;16.67;;;5.22;;
79023;SDS011;70306;44.764;37.688;2023-08-17T05:03:59;34.50;;;7.03;;
79023;SDS011;70306;44.764;37.688;2023-08-17T05:05:04;27.95;;;5.28;;
79023;SDS011;70306;44.764;37.688;2023-08-17T05:06:07;24.15;;;5.43;;
79023;SDS011;70306;44.764;37.688;2023-08-17T05:07:09;14.75;;;4.65;;
79023;SDS011;70306;44.764;37.688;2023-08-17T05:08:11;22.23;;;4.15;;
79023;SDS011;70306;44.764;37.688;2023-08-17T05:09:13;19.10;;;5.10;;
79023;SDS011;70306;44.764;37.688;2023-08-17T05:10:15;19.40;;;5.25;;
79023;SDS011;70306;44.764;37.688;2023-08-17T05:11:17;27.55;;;5.13;;
79023;SDS011;70306;44.764;37.688;2023-08-17T05:12:19;12.82;;;4.50;;
79023;SDS011;70306;44.764;37.688;2023-08-17T05:13:21;19.42;;;5.07;;
79023;SDS011;70306;44.764;37.688;2023-08-17T05:14:23;18.67;;;5.38;;
79023;SDS011;70306;44.764;37.688;2023-08-17T05:15:25;15.30;;;4.55;;
79023;SDS011;70306;44.764;37.688;2023-08-17T05:16:26;26.60;;;7.15;;
79023;SDS011;70306;44.764;37.688;2023-08-17T05:17:28;11.98;;;4.57;;
79023;SDS011;70306;44.764;37.688;2023-08-17T05:18:30;19.02;;;4.70;;
79023;SDS011;70306;44.764;37.688;2023-08-17T05:19:32;19.90;;;4.88;;
79023;SDS011;70306;44.764;37.688;2023-08-17T05:20:34;14.73;;;4.47;;
79023;SDS011;70306;44.764;37.688;2023-08-17T05:21:36;17.05;;;4.82;;
79023;SDS011;70306;44.764;37.688;2023-08-17T05:22:37;10.85;;;4.10;;
79023;SDS011;70306;44.764;37.688;2023-08-17T05:23:39;12.18;;;4.90;;
79023;SDS011;70306;44.764;37.688;2023-08-17T05:24:41;16.80;;;5.53;;
79023;SDS011;70306;44.764;37.688;2023-08-17T05:25:45;12.70;;;4.93;;
79023;SDS011;70306;44.764;37.688;2023-08-17T05:26:49;21.48;;;5.57;;
79023;SDS011;70306;44.764;37.688;2023-08-17T05:27:50;18.17;;;4.90;;
79023;SDS011;70306;44.764;37.688;2023-08-17T05:28:52;13.15;;;4.72;;
79023;SDS011;70306;44.764;37.688;2023-08-17T05:29:54;22.90;;;5.55;;
79023;SDS011;70306;44.764;37.688;2023-08-17T05:31:02;43.33;;;7.28;;
79023;SDS011;70306;44.764;37.688;2023-08-17T05:32:05;18.42;;;5.25;;
79023;SDS011;70306;44.764;37.688;2023-08-17T05:33:07;21.02;;;7.20;;
79023;SDS011;70306;44.764;37.688;2023-08-17T05:34:09;26.52;;;5.95;;
79023;SDS011;70306;44.764;37.688;2023-08-17T05:35:12;17.58;;;5.22;;
79023;SDS011;70306;44.764;37.688;2023-08-17T05:36:14;35.83;;;5.38;;
79023;SDS011;70306;44.764;37.688;2023-08-17T05:37:15;23.33;;;5.63;;
79023;SDS011;70306;44.764;37.688;2023-08-17T05:38:18;13.45;;;4.53;;
79023;SDS011;70306;44.764;37.688;2023-08-17T05:39:19;30.33;;;5.57;;
79023;SDS011;70306;44.764;37.688;2023-08-17T05:40:21;26.50;;;5.68;;
79023;SDS011;70306;44.764;37.688;2023-08-17T05:41:23;46.38;;;6.82;;
79023;SDS011;70306;44.764;37.688;2023-08-17T05:42:24;19.92;;;5.18;;
79023;SDS011;70306;44.764;37.688;2023-08-17T05:43:26;13.07;;;4.97;;
79023;SDS011;70306;44.764;37.688;2023-08-17T05:44:28;16.55;;;4.70;;
79023;SDS011;70306;44.764;37.688;2023-08-17T05:45:29;82.57;;;10.63;;
79023;SDS011;70306;44.764;37.688;2023-08-17T05:46:31;29.08;;;5.50;;
79023;SDS011;70306;44.764;37.688;2023-08-17T05:47:33;24.38;;;4.57;;
79023;SDS011;70306;44.764;37.688;2023-08-17T05:48:35;24.55;;;5.07;;
79023;SDS011;70306;44.764;37.688;2023-08-17T05:49:36;29.83;;;5.22;;
79023;SDS011;70306;44.764;37.688;2023-08-17T05:50:41;12.13;;;5.05;;
79023;SDS011;70306;44.764;37.688;2023-08-17T05:51:43;21.50;;;4.35;;
79023;SDS011;70306;44.764;37.688;2023-08-17T05:52:45;14.20;;;4.35;;
79023;SDS011;70306;44.764;37.688;2023-08-17T05:53:47;14.38;;;4.40;;
79023;SDS011;70306;44.764;37.688;2023-08-17T05:54:48;28.08;;;6.15;;
79023;SDS011;70306;44.764;37.688;2023-08-17T05:55:50;23.02;;;4.53;;
79023;SDS011;70306;44.764;37.688;2023-08-17T05:56:52;22.27;;;5.30;;
79023;SDS011;70306;44.764;37.688;2023-08-17T05:57:54;15.75;;;5.50;;
79023;SDS011;70306;44.764;37.688;2023-08-17T05:58:55;17.98;;;5.20;;
79023;SDS011;70306;44.764;37.688;2023-08-17T05:59:57;10.85;;;4.72;;
79023;SDS011;70306;44.764;37.688;2023-08-17T06:01:05;43.80;;;10.35;;
79023;SDS011;70306;44.764;37.688;2023-08-17T06:02:08;47.85;;;8.95;;
79023;SDS011;70306;44.764;37.688;2023-08-17T06:03:10;31.23;;;6.40;;
79023;SDS011;70306;44.764;37.688;2023-08-17T06:04:11;20.83;;;5.13;;
79023;SDS011;70306;44.764;37.688;2023-08-17T06:05:13;15.25;;;4.10;;
79023;SDS011;70306;44.764;37.688;2023-08-17T06:06:15;38.00;;;9.15;;
79023;SDS011;70306;44.764;37.688;2023-08-17T06:07:16;34.72;;;6.35;;
79023;SDS011;70306;44.764;37.688;2023-08-17T06:08:18;64.05;;;7.57;;